Terminal Aerodrome Forecast
Issued by NWS

Home | Current Version | Previous Version | Text Only | Print | Product List | Glossary On
Versions: 1 2 3 4 5 6 7 8 9 10 11 12 13 14 15 16 17 18
000
FTUS44 KMAF 211700
TAFFST
TAF
KFST 211733Z 2118/2218 14010KT P6SM SCT025 BKN060
      TEMPO 2118/2122 3SM TSRA BR OVC025CB
     FM212200 12010KT P6SM BKN040
      TEMPO 2122/2202 4SM TSRA BR OVC025CB=

USA.gov is the U.S. government's official web portal to all federal, state and local government web resources and services.